createdAt,value
2019-03-31T00:01:56.643Z,5.90
2019-03-31T00:04:27.918Z,5.07
2019-03-31T00:06:59.142Z,5.83
2019-03-31T00:09:30.588Z,5.00
2019-03-31T00:12:01.823Z,4.83
2019-03-31T00:14:33.171Z,4.53
2019-03-31T00:17:04.499Z,5.37
2019-03-31T00:19:35.744Z,5.10
2019-03-31T00:22:07.123Z,6.10
2019-03-31T00:24:38.365Z,4.60
2019-03-31T00:27:09.546Z,4.93
2019-03-31T00:29:40.811Z,5.60
2019-03-31T00:32:13.353Z,5.83
2019-03-31T00:34:44.601Z,5.13
2019-03-31T00:37:15.879Z,5.80
2019-03-31T00:39:47.127Z,5.23
2019-03-31T00:42:18.331Z,6.27
2019-03-31T00:44:49.585Z,4.87
2019-03-31T00:47:20.819Z,5.00
2019-03-31T00:49:52.081Z,5.37
2019-03-31T00:52:23.333Z,5.43
2019-03-31T00:54:54.497Z,5.57
2019-03-31T00:57:25.776Z,6.40
2019-03-31T00:59:57.028Z,6.10
2019-03-31T01:02:31.029Z,6.43
2019-03-31T01:05:02.659Z,5.43
2019-03-31T01:07:33.899Z,5.47
2019-03-31T01:10:05.518Z,5.57
2019-03-31T01:12:36.836Z,5.33
2019-03-31T01:15:13.847Z,5.23
2019-03-31T01:17:45.461Z,5.30
2019-03-31T01:20:16.684Z,5.30
2019-03-31T01:22:47.965Z,5.80
2019-03-31T01:25:19.713Z,6.07
2019-03-31T01:27:51.009Z,5.13
2019-03-31T01:30:22.758Z,6.20
2019-03-31T01:32:54.348Z,5.07
2019-03-31T01:35:25.739Z,6.73
2019-03-31T01:37:56.993Z,6.07
2019-03-31T01:40:28.287Z,5.63
2019-03-31T01:42:59.548Z,6.77
2019-03-31T01:45:30.720Z,6.17
2019-03-31T01:48:02.080Z,6.20
2019-03-31T01:50:33.377Z,5.57
2019-03-31T01:53:04.654Z,5.60
2019-03-31T01:55:36.069Z,5.57
2019-03-31T01:58:07.373Z,6.03
2019-03-31T02:00:41.334Z,6.67
2019-03-31T02:03:12.617Z,5.53
2019-03-31T02:05:43.920Z,5.27
2019-03-31T02:08:15.291Z,5.47
2019-03-31T02:10:46.501Z,5.40
2019-03-31T02:13:17.739Z,5.83
2019-03-31T02:15:48.993Z,5.77
2019-03-31T02:18:20.180Z,6.40
2019-03-31T02:20:51.404Z,6.40
2019-03-31T02:23:22.651Z,6.63
2019-03-31T02:25:53.861Z,5.47
2019-03-31T02:28:25.095Z,6.00
2019-03-31T02:30:56.343Z,6.17
2019-03-31T02:33:27.522Z,5.77
2019-03-31T02:35:58.773Z,6.00
2019-03-31T02:38:29.933Z,6.47
2019-03-31T02:41:03.712Z,5.03
2019-03-31T02:43:34.925Z,6.63
2019-03-31T02:46:06.190Z,5.53
2019-03-31T02:48:37.395Z,6.40
2019-03-31T02:51:08.807Z,6.33
2019-03-31T02:53:40.171Z,6.80
2019-03-31T02:56:12.817Z,5.53
2019-03-31T02:58:44.172Z,6.37
2019-03-31T03:01:16.725Z,6.37
2019-03-31T03:03:50.564Z,6.13
2019-03-31T03:06:23.387Z,5.27
2019-03-31T03:08:56.700Z,6.60
2019-03-31T03:11:31.301Z,6.67
2019-03-31T03:14:05.353Z,6.73
2019-03-31T03:16:36.601Z,6.83
2019-03-31T03:19:07.860Z,6.23
2019-03-31T03:21:39.109Z,6.50
2019-03-31T03:24:10.389Z,6.70
2019-03-31T03:26:41.638Z,7.27
2019-03-31T03:29:12.868Z,6.27
2019-03-31T03:31:44.105Z,6.70
2019-03-31T03:34:15.332Z,7.80
2019-03-31T03:36:46.550Z,6.93
2019-03-31T03:39:17.779Z,6.93
2019-03-31T03:41:49.027Z,6.40
2019-03-31T03:44:21.516Z,7.10
2019-03-31T03:46:52.762Z,7.17
2019-03-31T03:49:23.972Z,7.10
2019-03-31T03:51:55.236Z,7.80
2019-03-31T03:54:26.461Z,7.23
2019-03-31T03:56:57.683Z,6.73
2019-03-31T03:59:28.892Z,8.40
2019-03-31T04:02:00.106Z,7.23
2019-03-31T04:04:31.332Z,7.03
2019-03-31T04:07:02.577Z,6.57
2019-03-31T04:09:33.788Z,6.10
2019-03-31T04:12:05.069Z,8.07
2019-03-31T04:14:36.295Z,8.40
2019-03-31T04:17:07.525Z,8.37
2019-03-31T04:19:38.735Z,7.90
2019-03-31T04:22:09.980Z,9.30
2019-03-31T04:24:41.223Z,6.80
2019-03-31T04:27:12.518Z,6.90
2019-03-31T04:29:43.743Z,7.73
2019-03-31T04:32:15.139Z,8.10
2019-03-31T04:34:46.749Z,7.87
2019-03-31T04:37:18.066Z,7.10
2019-03-31T04:39:49.903Z,6.90
2019-03-31T04:42:21.321Z,7.27
2019-03-31T04:44:52.712Z,7.20
2019-03-31T04:47:24.071Z,8.20
2019-03-31T04:49:55.458Z,8.00
2019-03-31T04:52:26.704Z,7.87
2019-03-31T04:54:58.239Z,7.10
2019-03-31T04:57:29.487Z,7.03
2019-03-31T05:00:00.749Z,6.80
2019-03-31T05:02:32.407Z,7.07
2019-03-31T05:05:03.805Z,6.90
2019-03-31T05:07:35.528Z,6.67
2019-03-31T05:10:07.738Z,6.77
2019-03-31T05:12:40.117Z,6.87
2019-03-31T05:15:11.570Z,6.27
2019-03-31T05:17:43.256Z,6.67
2019-03-31T05:20:14.670Z,6.93
2019-03-31T05:22:46.389Z,7.23
2019-03-31T05:25:17.807Z,7.90
2019-03-31T05:27:49.519Z,6.53
2019-03-31T05:30:20.823Z,7.07
2019-03-31T05:32:52.415Z,7.57
2019-03-31T05:35:26.889Z,6.13
2019-03-31T05:37:57.489Z,7.40
2019-03-31T05:40:30.708Z,6.40
2019-03-31T05:43:03.069Z,7.13
2019-03-31T05:45:34.367Z,8.53
2019-03-31T05:48:06.200Z,7.60
2019-03-31T05:50:37.703Z,8.13
2019-03-31T05:53:09.379Z,7.13
2019-03-31T05:55:41.013Z,6.87
2019-03-31T05:58:12.652Z,7.07
2019-03-31T06:00:48.055Z,7.53
2019-03-31T06:03:19.333Z,7.93
2019-03-31T06:05:50.711Z,6.50
2019-03-31T06:08:22.323Z,6.77
2019-03-31T06:10:53.786Z,7.73
2019-03-31T06:13:25.105Z,7.33
2019-03-31T06:15:56.780Z,6.80
2019-03-31T06:18:28.446Z,7.70
2019-03-31T06:21:00.318Z,6.67
2019-03-31T06:23:31.895Z,6.83
2019-03-31T06:26:03.175Z,7.47
2019-03-31T06:28:34.829Z,6.83
2019-03-31T06:31:06.135Z,7.17
2019-03-31T06:33:37.370Z,6.23
2019-03-31T06:36:09.299Z,6.60
2019-03-31T06:38:40.887Z,6.57
2019-03-31T06:41:12.611Z,6.37
2019-03-31T06:43:44.084Z,6.10
2019-03-31T06:46:15.486Z,6.47
2019-03-31T06:48:47.209Z,6.27
2019-03-31T06:51:18.887Z,5.97
2019-03-31T06:53:50.402Z,5.53
2019-03-31T06:56:21.691Z,5.50
2019-03-31T06:58:53.501Z,5.83
2019-03-31T07:01:25.043Z,6.10
2019-03-31T07:03:56.543Z,6.70
2019-03-31T07:06:28.249Z,7.40
2019-03-31T07:09:00.611Z,5.80
2019-03-31T07:11:32.105Z,6.67
2019-03-31T07:14:03.679Z,7.30
2019-03-31T07:16:35.148Z,7.63
2019-03-31T07:19:09.842Z,7.73
2019-03-31T07:21:41.293Z,6.90
2019-03-31T07:24:12.727Z,7.43
2019-03-31T07:26:44.564Z,8.23
2019-03-31T07:29:16.433Z,8.33
2019-03-31T07:31:48.245Z,7.87
2019-03-31T07:34:20.743Z,7.63
2019-03-31T07:36:52.560Z,6.63
2019-03-31T07:39:24.272Z,7.73
2019-03-31T07:41:57.647Z,7.37
2019-03-31T07:44:29.582Z,7.03
2019-03-31T07:47:01.049Z,6.50
2019-03-31T07:49:32.528Z,7.07
2019-03-31T07:52:03.788Z,6.63
2019-03-31T07:54:35.055Z,8.03
2019-03-31T07:57:07.175Z,7.50
2019-03-31T07:59:40.063Z,7.33
2019-03-31T08:02:11.446Z,7.37
2019-03-31T08:04:42.728Z,7.60
2019-03-31T08:07:14.020Z,8.83
2019-03-31T08:09:45.314Z,7.90
2019-03-31T08:12:16.823Z,8.17
2019-03-31T08:14:48.619Z,8.03
2019-03-31T08:17:20.578Z,7.30
2019-03-31T08:19:52.200Z,8.07
2019-03-31T08:22:23.522Z,7.73
2019-03-31T08:24:54.774Z,8.17
2019-03-31T08:27:26.041Z,6.93
2019-03-31T08:30:00.745Z,9.00
2019-03-31T08:32:30.432Z,8.90
2019-03-31T08:35:01.899Z,9.40
2019-03-31T08:37:33.122Z,8.60
2019-03-31T08:40:04.531Z,10.00
2019-03-31T08:42:36.583Z,9.17
2019-03-31T08:45:08.331Z,8.87
2019-03-31T08:47:39.876Z,10.30
2019-03-31T08:50:12.128Z,8.97
2019-03-31T08:52:43.392Z,10.00
2019-03-31T08:55:15.379Z,8.53
2019-03-31T08:57:46.612Z,9.87
2019-03-31T09:00:33.130Z,9.50
2019-03-31T09:03:04.493Z,9.30
2019-03-31T09:05:35.732Z,9.27
2019-03-31T09:08:07.168Z,9.00
2019-03-31T09:10:38.495Z,8.63
2019-03-31T09:13:09.811Z,9.80
2019-03-31T09:15:41.084Z,9.60
2019-03-31T09:18:12.331Z,9.90
2019-03-31T09:20:43.605Z,9.60
2019-03-31T09:23:14.882Z,9.23
2019-03-31T09:25:47.802Z,9.83
2019-03-31T09:28:19.440Z,8.67
2019-03-31T09:30:52.851Z,8.60
2019-03-31T09:33:24.716Z,10.37
2019-03-31T09:35:56.322Z,9.80
2019-03-31T09:38:27.677Z,8.37
2019-03-31T09:40:59.462Z,11.30
2019-03-31T09:43:31.120Z,9.57
2019-03-31T09:46:02.712Z,8.80
2019-03-31T09:48:34.352Z,9.60
2019-03-31T09:51:05.874Z,9.80
2019-03-31T09:53:37.289Z,9.63
2019-03-31T09:56:08.707Z,10.83
2019-03-31T09:58:40.504Z,10.40
2019-03-31T10:01:11.815Z,10.60
2019-03-31T10:03:43.086Z,11.17
2019-03-31T10:06:14.374Z,11.07
2019-03-31T10:08:45.817Z,10.43
2019-03-31T10:11:17.081Z,10.40
2019-03-31T10:13:48.366Z,10.07
2019-03-31T10:16:19.648Z,12.50
2019-03-31T10:18:51.143Z,10.70
2019-03-31T10:21:22.616Z,11.23
2019-03-31T10:23:55.373Z,9.57
2019-03-31T10:26:32.152Z,10.63
2019-03-31T10:29:02.700Z,9.20
2019-03-31T10:31:35.255Z,8.03
2019-03-31T10:34:08.398Z,10.17
2019-03-31T10:36:44.799Z,9.23
2019-03-31T10:39:13.591Z,9.07
2019-03-31T10:41:44.858Z,10.10
2019-03-31T10:44:16.573Z,9.27
2019-03-31T10:46:47.984Z,10.50
2019-03-31T10:49:19.293Z,10.03
2019-03-31T10:51:51.332Z,10.23
2019-03-31T10:54:22.774Z,9.93
2019-03-31T10:56:55.273Z,10.17
2019-03-31T10:59:26.752Z,9.17
2019-03-31T11:01:59.028Z,10.47
2019-03-31T11:04:30.309Z,9.50
2019-03-31T11:07:03.487Z,10.00
2019-03-31T11:09:34.740Z,11.53
2019-03-31T11:12:11.096Z,11.00
2019-03-31T11:14:42.372Z,11.53
2019-03-31T11:17:13.895Z,9.07
2019-03-31T11:19:45.196Z,10.90
2019-03-31T11:22:26.672Z,10.47
2019-03-31T11:24:58.250Z,10.80
2019-03-31T11:27:32.807Z,8.77
2019-03-31T11:30:04.451Z,10.63
2019-03-31T11:32:35.752Z,10.80
2019-03-31T11:35:07.719Z,11.47
2019-03-31T11:37:39.152Z,10.80
2019-03-31T11:40:11.440Z,10.50
2019-03-31T11:42:43.475Z,10.70
2019-03-31T11:45:15.205Z,9.60
2019-03-31T11:47:46.499Z,10.80
2019-03-31T11:50:19.728Z,11.60
2019-03-31T11:52:52.989Z,11.93
2019-03-31T11:55:24.367Z,11.20
2019-03-31T11:57:55.635Z,10.40
2019-03-31T12:00:28.527Z,11.47
2019-03-31T12:02:59.802Z,11.97
2019-03-31T12:05:31.084Z,12.27
2019-03-31T12:08:03.112Z,11.00
2019-03-31T12:10:34.414Z,10.57
2019-03-31T12:13:05.970Z,11.03
2019-03-31T12:15:37.245Z,10.77
2019-03-31T12:18:08.479Z,9.87
2019-03-31T12:20:39.711Z,10.23
2019-03-31T12:23:10.956Z,11.53
2019-03-31T12:25:42.201Z,11.03
2019-03-31T12:28:13.449Z,9.93
2019-03-31T12:30:44.777Z,11.83
2019-03-31T12:33:15.993Z,11.20
2019-03-31T12:35:47.272Z,12.70
2019-03-31T12:38:18.533Z,10.70
2019-03-31T12:40:49.776Z,10.77
2019-03-31T12:43:21.001Z,11.77
2019-03-31T12:45:52.274Z,11.60
2019-03-31T12:48:23.494Z,10.43
2019-03-31T12:50:54.716Z,10.70
2019-03-31T12:53:26.507Z,10.30
2019-03-31T12:56:00.484Z,10.27
2019-03-31T12:58:31.904Z,11.20
2019-03-31T13:01:03.707Z,11.50
2019-03-31T13:03:35.394Z,12.37
2019-03-31T13:06:06.863Z,12.00
2019-03-31T13:08:38.761Z,11.30
2019-03-31T13:11:10.442Z,11.47
2019-03-31T13:13:41.765Z,11.67
2019-03-31T13:16:13.057Z,12.30
2019-03-31T13:18:44.613Z,11.10
2019-03-31T13:21:15.887Z,12.30
2019-03-31T13:23:47.158Z,11.23
2019-03-31T13:26:18.457Z,12.00
2019-03-31T13:28:49.727Z,11.90
2019-03-31T13:31:21.042Z,11.30
2019-03-31T13:33:52.345Z,12.20
2019-03-31T13:36:23.619Z,13.10
2019-03-31T13:38:54.888Z,12.07
2019-03-31T13:41:26.049Z,10.77
2019-03-31T13:43:57.324Z,12.73
2019-03-31T13:46:28.582Z,12.37
2019-03-31T13:48:59.847Z,12.10
2019-03-31T13:51:31.446Z,13.60
2019-03-31T13:54:02.714Z,12.47
2019-03-31T13:56:34.162Z,12.27
2019-03-31T13:59:08.987Z,12.63
2019-03-31T14:01:38.612Z,12.63
2019-03-31T14:04:09.978Z,12.77
2019-03-31T14:06:41.246Z,10.63
2019-03-31T14:09:12.514Z,13.43
2019-03-31T14:11:43.750Z,13.10
2019-03-31T14:14:15.377Z,12.77
2019-03-31T14:16:46.626Z,11.87
2019-03-31T14:19:17.873Z,11.10
2019-03-31T14:21:49.119Z,13.23
2019-03-31T14:24:20.408Z,11.30
2019-03-31T14:26:51.677Z,11.80
2019-03-31T14:29:22.933Z,13.17
2019-03-31T14:31:54.220Z,10.60
2019-03-31T14:34:25.690Z,11.63
2019-03-31T14:36:56.939Z,11.80
2019-03-31T14:39:28.240Z,11.40
2019-03-31T14:41:59.513Z,12.50
2019-03-31T14:44:30.761Z,12.30
2019-03-31T14:47:02.006Z,11.47
2019-03-31T14:49:33.320Z,12.87
2019-03-31T14:52:04.690Z,13.57
2019-03-31T14:54:35.930Z,13.90
2019-03-31T14:57:07.279Z,15.50
2019-03-31T14:59:38.578Z,14.60
2019-03-31T15:02:09.832Z,15.30
2019-03-31T15:04:41.147Z,16.10
2019-03-31T15:07:12.388Z,15.80
2019-03-31T15:09:43.709Z,16.13
2019-03-31T15:12:14.947Z,17.63
2019-03-31T15:14:46.244Z,17.27
2019-03-31T15:17:17.507Z,16.80
2019-03-31T15:19:48.765Z,18.17
2019-03-31T15:22:20.042Z,18.23
2019-03-31T15:24:51.299Z,18.37
2019-03-31T15:27:22.561Z,18.33
2019-03-31T15:29:53.930Z,20.37
2019-03-31T15:32:25.186Z,18.60
2019-03-31T15:34:56.499Z,19.90
2019-03-31T15:37:27.883Z,21.70
2019-03-31T15:39:59.173Z,20.80
2019-03-31T15:42:30.471Z,24.10
2019-03-31T15:45:02.832Z,24.53
2019-03-31T15:47:34.094Z,24.83
2019-03-31T15:50:05.591Z,23.20
2019-03-31T15:52:36.860Z,24.13
2019-03-31T15:55:08.849Z,23.97
2019-03-31T15:57:40.094Z,23.97
2019-03-31T16:00:14.855Z,25.17
2019-03-31T16:02:47.871Z,24.43
2019-03-31T16:05:19.209Z,25.47
2019-03-31T16:07:50.168Z,25.40
2019-03-31T16:10:20.600Z,25.63
2019-03-31T16:12:51.099Z,25.23
2019-03-31T16:15:21.625Z,26.27
2019-03-31T16:17:52.100Z,25.20
2019-03-31T16:20:22.573Z,31.83
2019-03-31T16:22:53.152Z,25.40
2019-03-31T16:25:42.496Z,26.27
2019-03-31T16:28:12.943Z,24.47
2019-03-31T16:30:43.703Z,26.23
2019-03-31T16:33:14.174Z,25.53
2019-03-31T16:35:44.648Z,24.73
2019-03-31T16:38:15.221Z,22.60
2019-03-31T16:40:45.678Z,25.37
2019-03-31T16:43:16.180Z,25.70
2019-03-31T16:45:46.997Z,24.50
2019-03-31T16:48:17.456Z,25.23
2019-03-31T16:50:47.885Z,26.43
2019-03-31T16:53:18.361Z,25.83
2019-03-31T16:55:48.949Z,26.00
2019-03-31T16:58:19.479Z,25.57
2019-03-31T17:00:49.927Z,24.93
2019-03-31T17:03:20.556Z,25.90
2019-03-31T17:05:51.366Z,24.20
2019-03-31T17:08:22.211Z,26.20
2019-03-31T17:10:54.604Z,26.47
2019-03-31T17:13:25.458Z,23.77
2019-03-31T17:15:56.550Z,24.20
2019-03-31T17:18:27.907Z,22.83
2019-03-31T17:20:59.474Z,23.90
2019-03-31T17:23:33.692Z,24.93
2019-03-31T17:26:04.990Z,24.60
2019-03-31T17:28:36.002Z,23.40
2019-03-31T17:31:06.735Z,25.10
2019-03-31T17:33:37.897Z,23.03
2019-03-31T17:36:08.568Z,23.03
2019-03-31T17:38:39.331Z,21.83
2019-03-31T17:41:12.734Z,24.53
2019-03-31T17:43:43.186Z,22.43
2019-03-31T17:46:13.661Z,23.53
2019-03-31T17:48:45.685Z,22.67
2019-03-31T17:51:16.137Z,22.63
2019-03-31T17:53:46.596Z,22.50
2019-03-31T17:56:17.169Z,21.97
2019-03-31T17:58:47.648Z,22.00
2019-03-31T18:01:18.107Z,24.30
2019-03-31T18:03:48.700Z,21.97
2019-03-31T18:06:21.491Z,21.47
2019-03-31T18:08:51.981Z,19.10
2019-03-31T18:11:22.476Z,19.47
2019-03-31T18:13:53.072Z,20.10
2019-03-31T18:16:23.550Z,20.90
2019-03-31T18:18:54.014Z,19.27
2019-03-31T18:21:27.247Z,20.00
2019-03-31T18:23:56.870Z,19.97
2019-03-31T18:26:27.367Z,18.20
2019-03-31T18:28:57.827Z,16.30
2019-03-31T18:31:28.382Z,17.80
2019-03-31T18:33:58.854Z,16.47
2019-03-31T18:36:36.370Z,15.63
2019-03-31T18:39:01.554Z,16.83
2019-03-31T18:41:32.005Z,15.87
2019-03-31T18:44:02.616Z,15.20
2019-03-31T18:46:33.134Z,14.83
2019-03-31T18:49:03.598Z,13.23
2019-03-31T18:51:34.059Z,13.37
2019-03-31T18:54:20.525Z,13.00
2019-03-31T18:57:16.048Z,13.40
2019-03-31T18:59:55.716Z,12.30
2019-03-31T19:02:33.290Z,13.07
2019-03-31T19:05:24.503Z,12.40
2019-03-31T19:08:12.742Z,13.47
2019-03-31T19:10:51.409Z,11.57
2019-03-31T19:13:55.509Z,11.17
2019-03-31T19:16:47.402Z,11.60
2019-03-31T19:19:42.796Z,11.83
2019-03-31T19:22:32.226Z,11.40
2019-03-31T19:25:24.630Z,12.57
2019-03-31T19:28:17.253Z,11.17
2019-03-31T19:30:54.442Z,11.13
2019-03-31T19:33:42.513Z,10.47
2019-03-31T19:36:26.394Z,11.20
2019-03-31T19:39:16.506Z,10.77
2019-03-31T19:42:14.928Z,10.80
2019-03-31T19:45:19.601Z,11.57
2019-03-31T19:48:00.886Z,11.50
2019-03-31T19:50:53.378Z,9.80
2019-03-31T19:53:45.563Z,10.50
2019-03-31T19:56:32.767Z,9.13
2019-03-31T19:59:34.428Z,9.67
2019-03-31T20:02:35.628Z,10.33
2019-03-31T20:05:19.268Z,10.90
2019-03-31T20:07:58.503Z,10.80
2019-03-31T20:10:42.657Z,9.70
2019-03-31T20:13:38.110Z,10.33
2019-03-31T20:16:18.241Z,9.60
2019-03-31T20:19:13.374Z,9.40
2019-03-31T20:21:48.384Z,9.60
2019-03-31T20:24:29.115Z,9.87
2019-03-31T20:27:17.782Z,9.33
2019-03-31T20:30:19.353Z,8.43
2019-03-31T20:32:57.828Z,9.73
2019-03-31T20:35:53.202Z,8.80
2019-03-31T20:38:32.395Z,8.83
2019-03-31T20:41:08.050Z,7.97
2019-03-31T20:43:55.384Z,9.10
2019-03-31T20:46:26.095Z,8.50
2019-03-31T20:48:56.532Z,9.63
2019-03-31T20:51:26.992Z,7.60
2019-03-31T20:53:57.422Z,7.40
2019-03-31T20:56:27.855Z,7.70
2019-03-31T20:58:58.291Z,6.80
2019-03-31T21:01:28.754Z,8.07
2019-03-31T21:03:59.184Z,7.73
2019-03-31T21:06:29.663Z,7.80
2019-03-31T21:09:00.112Z,8.63
2019-03-31T21:11:30.598Z,8.87
2019-03-31T21:14:01.105Z,8.00
2019-03-31T21:16:31.601Z,7.37
2019-03-31T21:19:02.097Z,8.50
2019-03-31T21:21:32.557Z,8.70
2019-03-31T21:24:03.008Z,6.60
2019-03-31T21:26:33.467Z,6.20
2019-03-31T21:29:03.926Z,6.90
2019-03-31T21:31:34.443Z,7.00
2019-03-31T21:34:05.482Z,6.90
2019-03-31T21:36:35.922Z,6.93
2019-03-31T21:39:08.765Z,6.47
2019-03-31T21:41:39.184Z,6.30
2019-03-31T21:44:09.625Z,6.97
2019-03-31T21:46:40.070Z,6.33
2019-03-31T21:49:10.633Z,7.00
2019-03-31T21:51:41.039Z,5.63
2019-03-31T21:54:11.484Z,6.87
2019-03-31T21:56:41.950Z,6.47
2019-03-31T21:59:12.413Z,5.77
2019-03-31T22:01:43.092Z,6.50
2019-03-31T22:04:13.556Z,5.67
2019-03-31T22:06:44.005Z,6.23
2019-03-31T22:09:14.464Z,6.00
2019-03-31T22:11:44.850Z,5.77
2019-03-31T22:14:15.315Z,6.13
2019-03-31T22:16:45.745Z,5.77
2019-03-31T22:19:16.227Z,6.60
2019-03-31T22:21:46.625Z,5.70
2019-03-31T22:24:17.244Z,6.23
2019-03-31T22:26:47.667Z,8.10
2019-03-31T22:29:18.107Z,6.60
2019-03-31T22:31:48.551Z,7.10
2019-03-31T22:34:18.989Z,6.43
2019-03-31T22:36:49.462Z,6.00
2019-03-31T22:39:19.985Z,6.20
2019-03-31T22:41:50.464Z,6.87
2019-03-31T22:44:20.910Z,7.60
2019-03-31T22:46:54.440Z,7.27
2019-03-31T22:49:23.548Z,5.70
2019-03-31T22:51:56.410Z,6.50
2019-03-31T22:54:26.189Z,6.80
2019-03-31T22:56:56.653Z,7.13
2019-03-31T22:59:27.094Z,6.90
2019-03-31T23:01:57.533Z,6.40
2019-03-31T23:04:27.967Z,6.67
2019-03-31T23:06:58.423Z,7.70
2019-03-31T23:09:28.828Z,6.30
2019-03-31T23:11:59.267Z,6.50
2019-03-31T23:14:29.692Z,6.93
2019-03-31T23:17:00.131Z,7.83
2019-03-31T23:19:30.513Z,6.97
2019-03-31T23:22:01.316Z,7.53
2019-03-31T23:24:31.730Z,6.97
2019-03-31T23:27:02.158Z,6.83
2019-03-31T23:29:32.688Z,6.47
2019-03-31T23:32:03.134Z,6.67
2019-03-31T23:34:33.540Z,6.80
2019-03-31T23:37:03.956Z,7.77
2019-03-31T23:39:34.362Z,7.20
2019-03-31T23:42:05.469Z,7.80
2019-03-31T23:44:36.649Z,6.93
2019-03-31T23:47:07.103Z,6.33
2019-03-31T23:49:37.514Z,7.47
2019-03-31T23:52:07.951Z,7.97
2019-03-31T23:54:38.355Z,7.23
2019-03-31T23:57:08.803Z,7.80
2019-03-31T23:59:39.482Z,7.17
